Aviation Digital Data Service (ADDS)

Output produced by TAFs form (1720 UTC 20 November 2017)
found at http://aviationweather.gov/adds/tafs/
 
KPTW 201654Z AUTO 28009G17KT 10SM SCT048 06/M05 A3011 RMK AO2 SLP196 T00611050
KRDG 201654Z 28016G21KT 10SM FEW045 07/M03 A3009 RMK AO2 SLP197 T00671033
KRDG 201120Z 2012/2112 27010KT P6SM SCT060 
     FM201500 26013G24KT P6SM SCT060 
     FM202100 25011KT P6SM SKC 
     FM210100 22005KT P6SM SKC
       
KLNS 201653Z 26013KT 10SM CLR 06/M04 A3011 RMK AO2 SLP200 T00611039
KLNS 201614Z 2016/2112 28015G20KT P6SM FEW050 
     FM201900 25010KT P6SM SKC 
     FM210000 VRB03KT P6SM SKC
       
KABE 201651Z 28015G23KT 10SM CLR 07/M05 A3006 RMK AO2 SLP180 T00671050
KABE 201120Z 2012/2112 26008KT P6SM BKN060 
     FM201400 27012G24KT P6SM SCT060 
     FM202200 25008KT P6SM SKC 
     FM210200 22004KT P6SM SKC
       
KPNE 201654Z 29013G20KT 10SM CLR 08/M05 A3010 RMK AO2 PK WND 28026/1605 SLP194 T00831050
KPNE 201120Z 2012/2112 27012G22KT P6SM SKC 
     FM202300 24005KT P6SM SKC